Redwood City, CA (94065)

11:11 AM PDT on April 01, 2015 (GMT -0700)
Belmont - Island Park | | Change Station
CLOSE
Current Station
Personal Weather Station
Location: Belmont, CA
Elevation: 5 ft
Nearby Weather Stations

Elev 5 ft 37.53 °N, 122.27 °W | Updated 11 seconds ago

Partly Cloudy
Partly Cloudy
61.9 °F
Feels Like 61.9 °F
N
3.1
Wind Variable Wind from NW
Gusts 5.4 mph

Today
High -- | Low -- °F
--% Chance of Precip.
Yesterday
High -- | Low -- °F
Precip. -- in
6:54 AM 7:31 PM
Waxing Gibbous, 93% visible
Pressure 30.20 in
Visibility 10.0 miles
Clouds Few 20000 ft
Dew Point 33 °F
Humidity 34%
Rainfall 0.00 in
Snow Depth Not available.
UV 6 out of 12
Pollen 9.30 out of 12
Air Quality Not available.
Flu Activity Not available.
METAR KSQL 011747Z 31006KT 10SM FEW200 16/00 A3020

More Conditions Fewer Conditions

Pressure 30.20 in
Visibility 10.0 miles
Clouds Few 20000 ft
Dew Point 33 °F
Humidity 34%
Rainfall 0.00 in
Snow Depth Not available.
UV 6 out of 12
Pollen 9.30 out of 12
Air Quality Not available.
Flu Activity Not available.
METAR KSQL 011747Z 31006KT 10SM FEW200 16/00 A3020

More Conditions Fewer Conditions

10-Day Weather Forecast

Almanac

Astronomy

Apr. 01, 2015 Rise Set
Actual Time
Civil Twilight
Nautical Twilight
Astronomical Twilight
Moon
Length of Visible Light
Length of Day
Tomorrow will be .
, % of the Moon is Illuminated

Today's Extremes

State Highs State Lows

Community

WunderPhotos

Upload Photos

1,810,030 photos uploaded!

WunderBlogs® & News

Nearby

Air Quality

  Air Quality AQ Index Pollutant
Not available.

Snow Depth

Station Depth Elevation

Earthquake Activity

City Distance Mag. Time & Date
Minimum magnitude displayed is 2.5.

Coastal Water Temperatures

Place Temperature

Stations

Nearby Weather Stations

Station Location Temp. Windchill Dew Point Humidity Wind Precip. Elev Updated Type